logo
Rechercher aéroport 
image banner adimage banner adimage banner ad
image banner ad

FLTI - Taranaki

Situé à Nega Nega, Zambia

ICAO - , IATA -

Données fournies par Airmate  

Information générale

Coordonnées: S15°48'51" E27°58'10"
Élévation : 3276 feet MSL.
Variation magnétique : -6° East
Voir autres Aéroports à Southern Province

Données opérationnelles

Special qualification required
Heure actuelle UTC:
Heure actuelle locale:
Météo à : FLKK - Kenneth Kaunda Intl ( 75 km )
TAF: TAF FLKK 081000Z 0812/0918 15010KT 9999 FEW040 BECMG 0816/0818 VRB03KT CAVOK BECMG 0906/0908 36005KT BECMG 0910/0912 08010KT 9999 FEW030
Voir NOTAMs / SUP AIP / TFR affectant cet aéroport [VIEW]
Fréquences de communication: [VIEW]

Pistes:

Identifiant RWYQFULongueur (ft)Largeur (ft)SurfaceLDA (ft)
0768°262270DIRT
25248°262270DIRT

Coordonnées de l'aéroport

Adresse: Nega Nega Zambia

Vue satellite de FLTI